North Carmen, New Mexico
Current Conditions -  °F | °C
As of 11:15 PM on Sunday 21 Dec 2014 (Local Time) from KAXX Reporting Station
Overcast Overcast  
Wind Chill: 19°   Ceiling: 3200
Heat Index: 32°   Visibility: 10mi
Dew Point: 27°   Wind: 23mph
Humidity: 80%   Direction: 250°WSW
Pressure: 29.82"   Gusts: 29mph
Location:  36.0379°N, 105.295°W
Report Text: KAXX 220615Z AUTO 25020G25KT 10SM SCT018 BKN032 OVC041 00/M03 A2982 RMK AO2 T00001030
Loading
Personal Weather Stations






























Interactive Weather Map New forecast layout! Learn more

10-Day Weather Forecast

Advertisements
Track Severe Weather on mobile